createdAt,value
2019-01-31T00:01:26.120Z,10.85
2019-01-31T00:04:14.167Z,10.63
2019-01-31T00:06:55.915Z,10.82
2019-01-31T00:09:25.474Z,11.80
2019-01-31T00:11:57.817Z,10.95
2019-01-31T00:14:42.601Z,11.53
2019-01-31T00:17:15.101Z,11.05
2019-01-31T00:19:47.496Z,11.45
2019-01-31T00:22:32.567Z,10.82
2019-01-31T00:25:18.661Z,12.23
2019-01-31T00:28:04.867Z,11.75
2019-01-31T00:30:40.395Z,10.72
2019-01-31T00:33:09.955Z,11.57
2019-01-31T00:35:51.295Z,12.63
2019-01-31T00:38:20.851Z,11.95
2019-01-31T00:40:50.400Z,10.88
2019-01-31T00:43:25.643Z,9.60
2019-01-31T00:45:55.187Z,10.18
2019-01-31T00:48:27.611Z,9.45
2019-01-31T00:51:03.630Z,8.88
2019-01-31T00:53:33.184Z,9.70
2019-01-31T00:56:17.789Z,9.60
2019-01-31T00:58:48.243Z,9.78
2019-01-31T01:01:34.465Z,9.20
2019-01-31T01:04:07.143Z,9.80
2019-01-31T01:06:49.174Z,10.72
2019-01-31T01:09:18.735Z,10.25
2019-01-31T01:11:57.480Z,10.40
2019-01-31T01:14:34.231Z,11.05
2019-01-31T01:17:06.751Z,11.15
2019-01-31T01:19:36.295Z,11.10
2019-01-31T01:22:08.762Z,10.43
2019-01-31T01:24:38.312Z,11.00
2019-01-31T01:27:19.851Z,11.25
2019-01-31T01:29:49.407Z,10.95
2019-01-31T01:32:18.981Z,10.72
2019-01-31T01:35:01.276Z,12.33
2019-01-31T01:37:40.514Z,10.82
2019-01-31T01:40:25.012Z,10.98
2019-01-31T01:42:54.790Z,9.88
2019-01-31T01:45:24.342Z,10.58
2019-01-31T01:47:54.127Z,10.30
2019-01-31T01:50:40.322Z,10.15
2019-01-31T01:53:09.868Z,9.45
2019-01-31T01:55:51.324Z,9.35
2019-01-31T01:58:20.867Z,9.05
2019-01-31T02:00:56.180Z,9.35
2019-01-31T02:03:28.659Z,8.85
2019-01-31T02:06:01.037Z,9.23
2019-01-31T02:08:33.471Z,9.13
2019-01-31T02:11:06.176Z,8.30
2019-01-31T02:13:38.428Z,8.50
2019-01-31T02:16:17.138Z,8.23
2019-01-31T02:18:49.154Z,8.00
2019-01-31T02:21:18.941Z,8.30
2019-01-31T02:23:51.403Z,8.00
2019-01-31T02:26:20.968Z,8.50
2019-01-31T02:28:50.506Z,8.95
2019-01-31T02:31:22.706Z,8.55
2019-01-31T02:34:01.299Z,7.65
2019-01-31T02:36:36.552Z,7.97
2019-01-31T02:39:22.591Z,7.58
2019-01-31T02:41:58.012Z,8.13
2019-01-31T02:44:30.229Z,8.70
2019-01-31T02:46:59.774Z,8.48
2019-01-31T02:49:35.195Z,8.38
2019-01-31T02:52:10.901Z,8.90
2019-01-31T02:54:46.607Z,8.95
2019-01-31T02:57:16.162Z,8.18
2019-01-31T02:59:45.719Z,8.85
2019-01-31T03:02:24.400Z,10.40
2019-01-31T03:05:09.302Z,8.70
2019-01-31T03:07:44.778Z,8.48
2019-01-31T03:10:32.370Z,8.93
2019-01-31T03:13:20.201Z,9.33
2019-01-31T03:15:55.792Z,8.95
2019-01-31T03:18:28.043Z,9.18
2019-01-31T03:21:00.375Z,8.58
2019-01-31T03:23:46.820Z,8.78
2019-01-31T03:26:16.367Z,8.78
2019-01-31T03:28:48.943Z,8.75
2019-01-31T03:31:24.503Z,8.73
2019-01-31T03:33:57.051Z,8.98
2019-01-31T03:36:26.606Z,8.50
2019-01-31T03:38:56.151Z,8.63
2019-01-31T03:41:42.433Z,8.93
2019-01-31T03:44:11.972Z,8.63
2019-01-31T03:46:44.171Z,8.43
2019-01-31T03:49:13.710Z,8.90
2019-01-31T03:51:43.264Z,8.18
2019-01-31T03:54:21.710Z,9.20
2019-01-31T03:57:03.542Z,8.80
2019-01-31T03:59:32.724Z,9.55
2019-01-31T04:02:07.960Z,9.40
2019-01-31T04:04:38.712Z,9.80
2019-01-31T04:07:06.865Z,10.58
2019-01-31T04:09:34.787Z,11.30
2019-01-31T04:12:02.719Z,11.57
2019-01-31T04:14:30.659Z,11.68
2019-01-31T04:16:58.579Z,11.35
2019-01-31T04:19:26.503Z,12.05
2019-01-31T04:21:54.424Z,12.05
2019-01-31T04:24:22.343Z,11.50
2019-01-31T04:26:50.271Z,12.80
2019-01-31T04:29:18.254Z,12.10
2019-01-31T04:31:46.187Z,12.98
2019-01-31T04:34:14.115Z,13.68
2019-01-31T04:36:42.043Z,14.03
2019-01-31T04:39:09.963Z,13.25
2019-01-31T04:41:38.122Z,13.83
2019-01-31T04:44:06.060Z,14.03
2019-01-31T04:46:34.011Z,13.80
2019-01-31T04:49:01.936Z,14.25
2019-01-31T04:51:29.850Z,14.20
2019-01-31T04:53:57.840Z,13.28
2019-01-31T04:56:25.796Z,15.35
2019-01-31T04:58:53.716Z,14.58
2019-01-31T05:01:21.636Z,14.45
2019-01-31T05:03:49.888Z,15.55
2019-01-31T05:06:17.811Z,14.60
2019-01-31T05:08:45.734Z,15.65
2019-01-31T05:11:13.919Z,14.00
2019-01-31T05:13:41.836Z,15.30
2019-01-31T05:16:09.763Z,16.00
2019-01-31T05:18:37.707Z,16.27
2019-01-31T05:21:05.641Z,14.75
2019-01-31T05:23:33.560Z,14.90
2019-01-31T05:26:01.503Z,15.70
2019-01-31T05:28:29.419Z,15.13
2019-01-31T05:30:57.339Z,15.93
2019-01-31T05:33:25.286Z,15.10
2019-01-31T05:35:53.208Z,14.80
2019-01-31T05:38:21.124Z,15.32
2019-01-31T05:40:55.831Z,13.53
2019-01-31T05:43:18.686Z,14.45
2019-01-31T05:45:46.609Z,13.35
2019-01-31T05:48:14.528Z,14.33
2019-01-31T05:50:42.461Z,13.30
2019-01-31T05:53:10.379Z,12.60
2019-01-31T05:55:38.559Z,12.98
2019-01-31T05:58:06.722Z,12.93
2019-01-31T06:00:36.117Z,12.10
2019-01-31T06:03:04.049Z,12.07
2019-01-31T06:05:31.990Z,11.12
2019-01-31T06:07:59.912Z,12.13
2019-01-31T06:10:27.836Z,11.00
2019-01-31T06:12:55.759Z,11.15
2019-01-31T06:15:23.675Z,10.75
2019-01-31T06:17:51.845Z,11.22
2019-01-31T06:20:21.026Z,10.63
2019-01-31T06:22:49.183Z,10.82
2019-01-31T06:25:17.123Z,10.85
2019-01-31T06:27:45.033Z,10.48
2019-01-31T06:30:14.226Z,10.98
2019-01-31T06:32:42.157Z,9.73
2019-01-31T06:35:10.980Z,9.65
2019-01-31T06:37:38.896Z,9.13
2019-01-31T06:40:08.687Z,9.95
2019-01-31T06:42:36.839Z,9.65
2019-01-31T06:45:06.391Z,10.05
2019-01-31T06:47:34.331Z,10.15
2019-01-31T06:50:02.257Z,8.85
2019-01-31T06:52:30.188Z,9.93
2019-01-31T06:54:58.348Z,9.78
2019-01-31T06:57:26.283Z,10.48
2019-01-31T06:59:54.211Z,9.50
2019-01-31T07:02:22.144Z,10.08
2019-01-31T07:04:50.147Z,10.23
2019-01-31T07:07:18.092Z,10.20
2019-01-31T07:09:46.014Z,10.10
2019-01-31T07:12:13.931Z,10.40
2019-01-31T07:14:41.875Z,9.98
2019-01-31T07:17:10.043Z,9.40
2019-01-31T07:19:38.932Z,9.53
2019-01-31T07:22:06.863Z,9.05
2019-01-31T07:24:34.784Z,10.40
2019-01-31T07:27:03.012Z,10.20
2019-01-31T07:29:30.923Z,9.60
2019-01-31T07:31:58.900Z,10.55
2019-01-31T07:34:27.205Z,9.33
2019-01-31T07:36:55.124Z,11.22
2019-01-31T07:39:23.055Z,11.45
2019-01-31T07:41:50.976Z,10.75
2019-01-31T07:44:19.159Z,10.98
2019-01-31T07:46:48.055Z,10.60
2019-01-31T07:49:15.981Z,10.28
2019-01-31T07:51:44.147Z,10.82
2019-01-31T07:54:12.075Z,11.05
2019-01-31T07:56:40.231Z,11.30
2019-01-31T07:59:08.159Z,11.43
2019-01-31T08:01:36.321Z,11.08
2019-01-31T08:04:04.274Z,11.50
2019-01-31T08:06:32.195Z,11.50
2019-01-31T08:09:00.127Z,12.03
2019-01-31T08:11:28.066Z,11.35
2019-01-31T08:13:55.995Z,12.30
2019-01-31T08:16:23.915Z,11.97
2019-01-31T08:18:51.864Z,11.75
2019-01-31T08:21:19.796Z,11.12
2019-01-31T08:23:47.972Z,12.45
2019-01-31T08:26:15.923Z,12.23
2019-01-31T08:28:43.851Z,12.95
2019-01-31T08:31:11.774Z,12.13
2019-01-31T08:33:41.464Z,13.00
2019-01-31T08:36:09.400Z,13.08
2019-01-31T08:38:37.402Z,12.85
2019-01-31T08:41:05.343Z,13.50
2019-01-31T08:43:33.347Z,14.07
2019-01-31T08:46:01.513Z,13.68
2019-01-31T08:48:29.451Z,13.68
2019-01-31T08:50:58.348Z,14.53
2019-01-31T08:53:26.534Z,13.30
2019-01-31T08:55:54.459Z,14.60
2019-01-31T08:58:22.467Z,14.03
2019-01-31T09:00:50.403Z,13.25
2019-01-31T09:03:18.916Z,13.50
2019-01-31T09:05:46.859Z,13.58
2019-01-31T09:08:14.772Z,13.78
2019-01-31T09:10:42.937Z,13.28
2019-01-31T09:13:12.035Z,13.05
2019-01-31T09:15:40.195Z,12.50
2019-01-31T09:18:08.135Z,12.95
2019-01-31T09:20:43.680Z,13.00
2019-01-31T09:23:19.084Z,11.93
2019-01-31T09:25:51.487Z,11.00
2019-01-31T09:28:26.923Z,11.97
2019-01-31T09:30:59.127Z,12.88
2019-01-31T09:33:37.724Z,13.70
2019-01-31T09:36:19.493Z,14.93
2019-01-31T09:39:05.984Z,13.83
2019-01-31T09:41:35.712Z,14.05
2019-01-31T09:44:10.993Z,13.60
2019-01-31T09:46:40.547Z,13.00
2019-01-31T09:49:10.111Z,11.83
2019-01-31T09:51:39.664Z,14.05
2019-01-31T09:54:18.414Z,12.75
2019-01-31T09:56:53.947Z,11.95
2019-01-31T09:59:23.515Z,12.82
2019-01-31T10:02:11.094Z,12.88
2019-01-31T10:04:43.596Z,15.43
2019-01-31T10:07:31.731Z,13.75
2019-01-31T10:10:10.521Z,16.42
2019-01-31T10:12:40.318Z,15.93
2019-01-31T10:15:13.097Z,13.75
2019-01-31T10:17:48.734Z,14.07
2019-01-31T10:20:27.135Z,14.15
2019-01-31T10:22:56.743Z,15.53
2019-01-31T10:25:26.321Z,15.00
2019-01-31T10:27:55.928Z,13.80
2019-01-31T10:30:28.144Z,14.53
2019-01-31T10:33:03.891Z,16.30
2019-01-31T10:35:33.435Z,15.45
2019-01-31T10:38:03.037Z,15.58
2019-01-31T10:40:32.842Z,17.05
2019-01-31T10:43:18.905Z,17.30
2019-01-31T10:45:48.465Z,15.18
2019-01-31T10:48:18.019Z,17.10
2019-01-31T10:51:02.612Z,17.73
2019-01-31T10:53:41.356Z,19.00
2019-01-31T10:56:19.770Z,18.48
2019-01-31T10:58:49.331Z,16.90
2019-01-31T11:01:34.231Z,18.85
2019-01-31T11:04:20.250Z,17.80
2019-01-31T11:06:49.810Z,18.37
2019-01-31T11:09:19.375Z,19.15
2019-01-31T11:11:48.928Z,20.43
2019-01-31T11:14:18.715Z,21.70
2019-01-31T11:17:04.819Z,21.95
2019-01-31T11:19:34.433Z,20.27
2019-01-31T11:22:22.304Z,20.05
2019-01-31T11:25:00.973Z,22.15
2019-01-31T11:27:48.248Z,22.02
2019-01-31T11:30:29.947Z,20.27
2019-01-31T11:33:08.519Z,20.70
2019-01-31T11:35:41.813Z,20.35
2019-01-31T11:38:27.547Z,21.57
2019-01-31T11:41:09.374Z,22.32
2019-01-31T11:43:47.994Z,22.05
2019-01-31T11:46:20.539Z,21.33
2019-01-31T11:48:53.040Z,22.80
2019-01-31T11:51:32.562Z,23.00
2019-01-31T11:54:07.827Z,22.25
2019-01-31T11:56:52.399Z,20.97
2019-01-31T11:59:21.299Z,21.73
2019-01-31T12:01:49.219Z,18.65
2019-01-31T12:04:17.155Z,22.07
2019-01-31T12:06:45.090Z,20.15
2019-01-31T12:09:13.146Z,20.27
2019-01-31T12:11:42.656Z,22.95
2019-01-31T12:14:10.586Z,20.77
2019-01-31T12:16:38.527Z,21.75
2019-01-31T12:19:07.564Z,19.23
2019-01-31T12:21:36.769Z,18.50
2019-01-31T12:24:04.771Z,19.57
2019-01-31T12:26:32.707Z,21.20
2019-01-31T12:29:00.632Z,21.33
2019-01-31T12:31:28.563Z,20.00
2019-01-31T12:33:56.493Z,20.92
2019-01-31T12:36:24.412Z,18.30
2019-01-31T12:38:54.838Z,18.75
2019-01-31T12:41:22.280Z,18.75
2019-01-31T12:43:50.212Z,19.90
2019-01-31T12:46:19.203Z,19.52
2019-01-31T12:48:47.139Z,18.12
2019-01-31T12:51:15.308Z,17.92
2019-01-31T12:53:43.555Z,16.25
2019-01-31T12:56:11.464Z,18.73
2019-01-31T12:58:40.955Z,19.62
2019-01-31T13:01:08.975Z,15.85
2019-01-31T13:03:37.140Z,18.42
2019-01-31T13:06:05.140Z,20.68
2019-01-31T13:08:33.069Z,20.72
2019-01-31T13:11:00.995Z,21.45
2019-01-31T13:13:29.235Z,22.25
2019-01-31T13:15:57.489Z,22.93
2019-01-31T13:18:25.403Z,21.17
2019-01-31T13:20:53.559Z,20.97
2019-01-31T13:23:21.723Z,22.90
2019-01-31T13:25:49.659Z,21.05
2019-01-31T13:28:17.586Z,19.42
2019-01-31T13:30:45.539Z,20.08
2019-01-31T13:33:13.463Z,19.57
2019-01-31T13:35:41.392Z,18.65
2019-01-31T13:38:09.333Z,17.40
2019-01-31T13:40:37.255Z,16.42
2019-01-31T13:43:05.417Z,17.12
2019-01-31T13:45:34.235Z,16.70
2019-01-31T13:48:03.143Z,15.60
2019-01-31T13:50:31.304Z,16.75
2019-01-31T13:52:59.231Z,16.95
2019-01-31T13:55:30.631Z,16.40
2019-01-31T13:57:58.551Z,16.85
2019-01-31T14:00:27.244Z,15.45
2019-01-31T14:02:55.244Z,14.83
2019-01-31T14:05:23.411Z,15.45
2019-01-31T14:07:51.358Z,16.12
2019-01-31T14:10:20.343Z,15.80
2019-01-31T14:12:48.267Z,14.58
2019-01-31T14:15:18.058Z,16.50
2019-01-31T14:17:46.059Z,17.05
2019-01-31T14:20:15.456Z,16.45
2019-01-31T14:22:43.426Z,17.77
2019-01-31T14:25:11.592Z,16.77
2019-01-31T14:27:39.523Z,17.20
2019-01-31T14:30:11.995Z,17.50
2019-01-31T14:32:40.091Z,15.55
2019-01-31T14:35:09.474Z,16.07
2019-01-31T14:37:37.424Z,16.85
2019-01-31T14:40:06.919Z,15.72
2019-01-31T14:42:35.080Z,16.27
2019-01-31T14:45:03.048Z,16.73
2019-01-31T14:47:32.068Z,16.80
2019-01-31T14:49:59.983Z,18.02
2019-01-31T14:52:28.709Z,17.42
2019-01-31T14:54:56.645Z,16.32
2019-01-31T14:57:24.830Z,16.32
2019-01-31T14:59:52.772Z,16.17
2019-01-31T15:02:20.729Z,16.67
2019-01-31T15:04:48.674Z,17.10
2019-01-31T15:07:16.880Z,16.67
2019-01-31T15:09:45.040Z,16.23
2019-01-31T15:12:12.975Z,16.48
2019-01-31T15:14:40.916Z,15.93
2019-01-31T15:17:08.834Z,17.23
2019-01-31T15:19:36.866Z,16.20
2019-01-31T15:22:06.034Z,17.15
2019-01-31T15:24:34.031Z,17.12
2019-01-31T15:27:02.179Z,18.50
2019-01-31T15:29:30.180Z,16.23
2019-01-31T15:31:58.099Z,16.95
2019-01-31T15:34:26.023Z,17.92
2019-01-31T15:36:54.180Z,18.55
2019-01-31T15:39:22.340Z,18.50
2019-01-31T15:41:50.263Z,17.55
2019-01-31T15:44:18.187Z,18.12
2019-01-31T15:46:46.116Z,18.40
2019-01-31T15:49:14.064Z,17.10
2019-01-31T15:51:41.981Z,17.07
2019-01-31T15:54:10.275Z,16.00
2019-01-31T15:56:38.336Z,16.85
2019-01-31T15:59:06.255Z,17.10
2019-01-31T16:01:34.190Z,17.82
2019-01-31T16:04:02.129Z,18.67
2019-01-31T16:06:30.067Z,17.95
2019-01-31T16:08:57.992Z,19.77
2019-01-31T16:11:26.190Z,19.65
2019-01-31T16:13:54.224Z,20.25
2019-01-31T16:16:22.167Z,20.30
2019-01-31T16:18:50.718Z,19.75
2019-01-31T16:21:18.647Z,19.32
2019-01-31T16:23:46.584Z,19.45
2019-01-31T16:26:14.511Z,19.67
2019-01-31T16:28:42.443Z,21.68
2019-01-31T16:31:10.368Z,21.33
2019-01-31T16:33:38.536Z,22.48
2019-01-31T16:36:06.523Z,22.48
2019-01-31T16:38:34.699Z,21.23
2019-01-31T16:41:02.891Z,21.42
2019-01-31T16:43:30.814Z,20.92
2019-01-31T16:45:58.975Z,22.70
2019-01-31T16:48:26.913Z,21.95
2019-01-31T16:50:54.837Z,22.10
2019-01-31T16:53:22.760Z,21.42
2019-01-31T16:55:51.765Z,20.97
2019-01-31T16:58:19.683Z,20.92
2019-01-31T17:00:47.611Z,20.75
2019-01-31T17:03:15.785Z,20.68
2019-01-31T17:05:43.711Z,20.52
2019-01-31T17:08:12.619Z,20.68
2019-01-31T17:10:40.607Z,20.65
2019-01-31T17:13:08.539Z,21.37
2019-01-31T17:15:36.696Z,21.27
2019-01-31T17:18:04.795Z,21.55
2019-01-31T17:20:40.468Z,22.55
2019-01-31T17:23:08.632Z,23.15
2019-01-31T17:25:36.616Z,25.52
2019-01-31T17:28:04.547Z,23.80
2019-01-31T17:30:32.489Z,21.40
2019-01-31T17:33:00.576Z,22.20
2019-01-31T17:35:28.676Z,25.00
2019-01-31T17:37:56.595Z,25.55
2019-01-31T17:40:34.896Z,24.63
2019-01-31T17:43:03.056Z,23.65
2019-01-31T17:45:31.142Z,23.45
2019-01-31T17:47:59.367Z,22.32
2019-01-31T17:50:27.301Z,22.10
2019-01-31T17:52:55.222Z,24.72
2019-01-31T17:55:23.952Z,29.55
2019-01-31T17:57:52.104Z,31.30
2019-01-31T18:00:24.487Z,34.43
2019-01-31T18:02:52.279Z,27.80
2019-01-31T18:05:20.207Z,34.18
2019-01-31T18:07:48.379Z,38.02
2019-01-31T18:10:20.627Z,29.02
2019-01-31T18:12:48.564Z,23.38
2019-01-31T18:15:16.483Z,23.22
2019-01-31T18:17:44.416Z,20.90
2019-01-31T18:20:13.803Z,23.65
2019-01-31T18:22:42.704Z,22.98
2019-01-31T18:25:10.628Z,22.58
2019-01-31T18:27:38.793Z,23.00
2019-01-31T18:30:10.983Z,23.30
2019-01-31T18:32:38.917Z,28.05
2019-01-31T18:35:08.016Z,28.95
2019-01-31T18:37:35.965Z,33.30
2019-01-31T18:40:05.570Z,28.45
2019-01-31T18:42:33.731Z,26.82
2019-01-31T18:45:01.691Z,26.25
2019-01-31T18:47:29.683Z,23.65
2019-01-31T18:49:57.840Z,22.98
2019-01-31T18:52:25.759Z,23.92
2019-01-31T18:54:53.694Z,23.75
2019-01-31T18:57:21.615Z,23.77
2019-01-31T18:59:49.558Z,31.90
2019-01-31T19:02:20.476Z,34.20
2019-01-31T19:04:47.360Z,32.03
2019-01-31T19:07:15.284Z,38.38
2019-01-31T19:09:43.243Z,31.65
2019-01-31T19:12:11.223Z,33.45
2019-01-31T19:14:39.409Z,30.37
2019-01-31T19:17:07.508Z,28.77
2019-01-31T19:19:35.455Z,28.62
2019-01-31T19:22:03.410Z,28.45
2019-01-31T19:24:31.455Z,27.17
2019-01-31T19:26:59.709Z,25.95
2019-01-31T19:29:27.727Z,23.75
2019-01-31T19:31:55.624Z,24.20
2019-01-31T19:34:23.553Z,26.42
2019-01-31T19:36:51.492Z,35.78
2019-01-31T19:39:21.419Z,35.73
2019-01-31T19:41:59.396Z,37.03
2019-01-31T19:44:31.711Z,34.90
2019-01-31T19:46:59.651Z,36.55
2019-01-31T19:49:27.575Z,33.92
2019-01-31T19:51:55.498Z,33.90
2019-01-31T19:54:25.044Z,23.65
2019-01-31T19:56:55.429Z,22.00
2019-01-31T19:59:24.536Z,20.52
2019-01-31T20:01:52.459Z,21.23
2019-01-31T20:04:20.408Z,21.17
2019-01-31T20:06:48.631Z,22.58
2019-01-31T20:09:18.267Z,21.48
2019-01-31T20:11:46.210Z,21.37
2019-01-31T20:14:14.121Z,21.60
2019-01-31T20:16:42.044Z,20.85
2019-01-31T20:19:09.979Z,19.52
2019-01-31T20:21:37.987Z,19.40
2019-01-31T20:24:05.911Z,20.75
2019-01-31T20:26:33.899Z,20.20
2019-01-31T20:29:01.899Z,18.80
2019-01-31T20:31:29.903Z,19.75
2019-01-31T20:33:57.903Z,19.67
2019-01-31T20:36:26.067Z,19.52
2019-01-31T20:38:54.083Z,18.87
2019-01-31T20:41:22.081Z,19.82
2019-01-31T20:43:50.392Z,19.05
2019-01-31T20:46:18.621Z,18.07
2019-01-31T20:48:46.627Z,18.60
2019-01-31T20:51:14.792Z,18.80
2019-01-31T20:53:42.792Z,18.90
2019-01-31T20:56:10.720Z,18.27
2019-01-31T20:58:38.643Z,17.65
2019-01-31T21:01:06.671Z,17.05
2019-01-31T21:03:34.615Z,17.10
2019-01-31T21:06:02.559Z,16.95
2019-01-31T21:08:30.527Z,15.70
2019-01-31T21:10:58.453Z,16.17
2019-01-31T21:13:26.447Z,15.55
2019-01-31T21:15:54.425Z,14.75
2019-01-31T21:18:22.335Z,14.50
2019-01-31T21:20:50.260Z,14.98
2019-01-31T21:23:18.224Z,14.68
2019-01-31T21:25:46.147Z,14.07
2019-01-31T21:28:14.083Z,14.28
2019-01-31T21:30:42.005Z,13.78
2019-01-31T21:33:09.925Z,13.70
2019-01-31T21:35:37.859Z,13.95
2019-01-31T21:38:05.799Z,13.32
2019-01-31T21:40:34.307Z,13.03
2019-01-31T21:43:02.239Z,12.43
2019-01-31T21:45:30.236Z,12.95
2019-01-31T21:47:58.158Z,12.80
2019-01-31T21:50:27.260Z,12.45
2019-01-31T21:52:55.195Z,12.47
2019-01-31T21:55:23.349Z,11.80
2019-01-31T21:57:51.271Z,12.13
2019-01-31T22:00:20.171Z,11.35
2019-01-31T22:02:48.419Z,10.82
2019-01-31T22:05:16.787Z,11.50
2019-01-31T22:07:44.707Z,11.97
2019-01-31T22:10:18.398Z,10.58
2019-01-31T22:12:45.919Z,10.72
2019-01-31T22:15:15.479Z,11.10
2019-01-31T22:17:43.409Z,10.48
2019-01-31T22:20:14.727Z,10.10
2019-01-31T22:22:42.643Z,9.78
2019-01-31T22:25:12.195Z,10.28
2019-01-31T22:27:40.124Z,9.78
2019-01-31T22:30:09.663Z,9.85
2019-01-31T22:32:38.523Z,10.43
2019-01-31T22:35:07.220Z,10.63
2019-01-31T22:37:35.371Z,10.68
2019-01-31T22:40:04.676Z,10.38
2019-01-31T22:42:32.603Z,9.93
2019-01-31T22:45:00.536Z,10.40
2019-01-31T22:47:28.456Z,10.28
2019-01-31T22:49:56.379Z,10.13
2019-01-31T22:52:24.313Z,10.40
2019-01-31T22:54:52.483Z,10.72
2019-01-31T22:57:20.418Z,10.38
2019-01-31T22:59:48.571Z,10.38
2019-01-31T23:02:16.731Z,10.48
2019-01-31T23:04:44.651Z,10.78
2019-01-31T23:07:12.587Z,10.40
2019-01-31T23:09:40.516Z,10.43
2019-01-31T23:12:08.688Z,10.65
2019-01-31T23:14:36.622Z,11.35
2019-01-31T23:17:04.547Z,10.72
2019-01-31T23:19:32.479Z,11.33
2019-01-31T23:22:00.403Z,11.25
2019-01-31T23:24:28.341Z,10.93
2019-01-31T23:26:56.261Z,11.57
2019-01-31T23:29:24.184Z,11.20
2019-01-31T23:31:52.335Z,11.50
2019-01-31T23:34:20.279Z,11.85
2019-01-31T23:36:48.211Z,11.63
2019-01-31T23:39:16.163Z,11.93
2019-01-31T23:41:44.083Z,11.53
2019-01-31T23:44:12.007Z,11.73
2019-01-31T23:46:39.943Z,11.33
2019-01-31T23:49:07.871Z,12.40
2019-01-31T23:51:35.795Z,12.18
2019-01-31T23:54:03.807Z,12.37
2019-01-31T23:56:31.957Z,18.30
2019-01-31T23:58:59.884Z,15.85
